createdAt,value
2019-04-07T00:00:55.371Z,100360.45
2019-04-07T00:03:25.558Z,100353.31
2019-04-07T00:05:55.948Z,100357.74
2019-04-07T00:08:26.259Z,100356.94
2019-04-07T00:10:56.586Z,100357.80
2019-04-07T00:13:27.119Z,100354.56
2019-04-07T00:15:57.440Z,100354.92
2019-04-07T00:18:28.460Z,100353.02
2019-04-07T00:20:58.531Z,100352.13
2019-04-07T00:23:28.845Z,100357.19
2019-04-07T00:25:58.944Z,100356.01
2019-04-07T00:28:28.798Z,100353.32
2019-04-07T00:30:58.830Z,100362.59
2019-04-07T00:33:28.876Z,100359.08
2019-04-07T00:35:59.252Z,100361.67
2019-04-07T00:38:29.405Z,100350.91
2019-04-07T00:40:59.375Z,100351.28
2019-04-07T00:43:29.299Z,100354.83
2019-04-07T00:45:59.501Z,100352.92
2019-04-07T00:48:29.451Z,100349.09
2019-04-07T00:51:00.275Z,100348.33
2019-04-07T00:53:30.224Z,100346.95
2019-04-07T00:56:00.396Z,100342.89
2019-04-07T00:58:30.426Z,100345.76
2019-04-07T01:01:00.967Z,100352.73
2019-04-07T01:03:30.928Z,100353.32
2019-04-07T01:06:01.184Z,100354.20
2019-04-07T01:08:31.152Z,100353.73
2019-04-07T01:11:01.379Z,100358.94
2019-04-07T01:13:31.946Z,100358.13
2019-04-07T01:16:02.184Z,100353.30
2019-04-07T01:18:35.484Z,100357.17
2019-04-07T01:21:05.746Z,100361.70
2019-04-07T01:23:36.371Z,100361.20
2019-04-07T01:26:07.398Z,100355.87
2019-04-07T01:28:37.596Z,100362.28
2019-04-07T01:31:07.889Z,100369.64
2019-04-07T01:33:38.146Z,100361.06
2019-04-07T01:36:08.367Z,100369.47
2019-04-07T01:38:38.347Z,100366.69
2019-04-07T01:41:18.864Z,100368.17
2019-04-07T01:43:54.840Z,100366.17
2019-04-07T01:46:32.684Z,100362.46
2019-04-07T01:49:23.805Z,100369.17
2019-04-07T01:52:00.840Z,100370.44
2019-04-07T01:54:40.188Z,100369.64
2019-04-07T01:57:32.345Z,100365.23
2019-04-07T02:00:20.082Z,100367.16
2019-04-07T02:02:59.919Z,100359.77
2019-04-07T02:05:56.814Z,100369.73
2019-04-07T02:08:27.344Z,100359.97
2019-04-07T02:11:17.411Z,100363.24
2019-04-07T02:14:10.018Z,100367.50
2019-04-07T02:16:59.254Z,100364.12
2019-04-07T02:19:37.043Z,100360.64
2019-04-07T02:22:27.326Z,100370.29
2019-04-07T02:25:08.336Z,100362.31
2019-04-07T02:27:56.819Z,100367.77
2019-04-07T02:30:54.319Z,100360.54
2019-04-07T02:33:31.020Z,100371.00
2019-04-07T02:36:22.813Z,100378.23
2019-04-07T02:38:52.010Z,100376.59
2019-04-07T02:41:47.404Z,100382.09
2019-04-07T02:44:37.076Z,100380.85
2019-04-07T02:47:14.798Z,100376.94
2019-04-07T02:50:03.399Z,100381.77
2019-04-07T02:52:51.443Z,100378.50
2019-04-07T02:55:45.188Z,100374.68
2019-04-07T02:58:22.823Z,100377.77
2019-04-07T03:01:18.117Z,100382.91
2019-04-07T03:04:10.189Z,100388.75
2019-04-07T03:06:53.076Z,100390.05
2019-04-07T03:09:40.719Z,100391.84
2019-04-07T03:12:21.462Z,100387.04
2019-04-07T03:15:07.020Z,100397.36
2019-04-07T03:18:00.295Z,100398.45
2019-04-07T03:20:40.806Z,100394.62
2019-04-07T03:23:33.746Z,100395.60
2019-04-07T03:26:13.354Z,100393.41
2019-04-07T03:29:00.134Z,100399.13
2019-04-07T03:31:53.486Z,100401.28
2019-04-07T03:34:40.838Z,100398.52
2019-04-07T03:37:36.428Z,100400.42
2019-04-07T03:40:15.552Z,100398.41
2019-04-07T03:42:53.976Z,100407.16
2019-04-07T03:45:39.368Z,100405.52
2019-04-07T03:48:28.427Z,100402.81
2019-04-07T03:51:04.906Z,100404.16
2019-04-07T03:53:43.118Z,100402.55
2019-04-07T03:56:20.353Z,100398.16
2019-04-07T03:59:03.578Z,100402.08
2019-04-07T04:02:00.890Z,100401.16
2019-04-07T04:04:50.628Z,100402.11
2019-04-07T04:07:49.453Z,100405.56
2019-04-07T04:10:24.946Z,100399.11
2019-04-07T04:13:03.035Z,100402.99
2019-04-07T04:15:44.674Z,100397.83
2019-04-07T04:18:14.831Z,100399.82
2019-04-07T04:20:44.782Z,100395.27
2019-04-07T04:23:14.652Z,100398.64
2019-04-07T04:25:45.400Z,100403.03
2019-04-07T04:28:16.360Z,100406.02
2019-04-07T04:30:46.695Z,100412.03
2019-04-07T04:33:16.606Z,100408.61
2019-04-07T04:35:46.623Z,100415.05
2019-04-07T04:38:17.712Z,100414.64
2019-04-07T04:40:48.026Z,100412.94
2019-04-07T04:43:18.094Z,100416.78
2019-04-07T04:45:48.446Z,100417.23
2019-04-07T04:48:19.558Z,100411.98
2019-04-07T04:50:50.426Z,100414.58
2019-04-07T04:53:20.865Z,100424.13
2019-04-07T04:55:51.486Z,100421.94
2019-04-07T04:58:24.785Z,100427.12
2019-04-07T05:00:54.781Z,100421.47
2019-04-07T05:03:25.012Z,100418.51
2019-04-07T05:05:55.489Z,100415.91
2019-04-07T05:08:27.042Z,100421.53
2019-04-07T05:10:57.555Z,100424.97
2019-04-07T05:13:27.818Z,100419.28
2019-04-07T05:15:58.061Z,100424.42
2019-04-07T05:18:27.949Z,100425.33
2019-04-07T05:20:58.237Z,100440.87
2019-04-07T05:23:28.504Z,100441.72
2019-04-07T05:25:59.192Z,100441.73
2019-04-07T05:28:36.703Z,100430.98
2019-04-07T05:31:04.496Z,100446.47
2019-04-07T05:33:34.534Z,100436.58
2019-04-07T05:36:04.850Z,100446.92
2019-04-07T05:38:35.687Z,100432.23
2019-04-07T05:41:06.395Z,100444.24
2019-04-07T05:43:36.975Z,100441.28
2019-04-07T05:46:08.018Z,100461.48
2019-04-07T05:48:39.182Z,100464.05
2019-04-07T05:51:09.772Z,100457.23
2019-04-07T05:53:39.936Z,100455.47
2019-04-07T05:56:10.226Z,100451.20
2019-04-07T05:58:41.879Z,100451.55
2019-04-07T06:01:12.890Z,100450.69
2019-04-07T06:03:43.619Z,100452.39
2019-04-07T06:06:13.737Z,100461.48
2019-04-07T06:08:46.979Z,100460.25
2019-04-07T06:11:15.945Z,100464.50
2019-04-07T06:13:46.605Z,100467.13
2019-04-07T06:16:19.939Z,100467.55
2019-04-07T06:18:48.322Z,100473.58
2019-04-07T06:21:19.076Z,100465.50
2019-04-07T06:23:49.601Z,100467.97
2019-04-07T06:26:19.806Z,100474.87
2019-04-07T06:28:53.271Z,100472.73
2019-04-07T06:31:24.412Z,100471.72
2019-04-07T06:33:55.097Z,100476.16
2019-04-07T06:36:26.547Z,100467.50
2019-04-07T06:38:56.784Z,100474.45
2019-04-07T06:41:30.061Z,100470.48
2019-04-07T06:44:08.913Z,100476.12
2019-04-07T06:46:49.271Z,100468.36
2019-04-07T06:49:27.809Z,100465.75
2019-04-07T06:52:13.825Z,100464.58
2019-04-07T06:55:08.885Z,100460.28
2019-04-07T06:57:58.245Z,100458.11
2019-04-07T07:00:46.272Z,100467.89
2019-04-07T07:03:38.116Z,100462.67
2019-04-07T07:06:25.426Z,100467.48
2019-04-07T07:09:14.760Z,100467.44
2019-04-07T07:11:55.074Z,100464.80
2019-04-07T07:14:41.573Z,100463.78
2019-04-07T07:17:22.691Z,100471.26
2019-04-07T07:20:15.978Z,100469.36
2019-04-07T07:22:49.612Z,100474.49
2019-04-07T07:25:20.427Z,100471.35
2019-04-07T07:27:52.312Z,100473.84
2019-04-07T07:30:25.978Z,100470.20
2019-04-07T07:33:01.950Z,100477.39
2019-04-07T07:35:32.320Z,100469.19
2019-04-07T07:38:02.776Z,100467.33
2019-04-07T07:40:34.958Z,100471.02
2019-04-07T07:43:05.633Z,100471.77
2019-04-07T07:45:36.262Z,100470.05
2019-04-07T07:48:07.404Z,100466.94
2019-04-07T07:50:38.739Z,100475.70
2019-04-07T07:53:10.339Z,100472.17
2019-04-07T07:55:41.239Z,100473.98
2019-04-07T07:58:12.232Z,100470.34
2019-04-07T08:00:43.420Z,100472.00
2019-04-07T08:03:13.927Z,100469.18
2019-04-07T08:05:44.520Z,100472.14
2019-04-07T08:08:15.681Z,100473.28
2019-04-07T08:10:46.352Z,100471.33
2019-04-07T08:13:16.906Z,100478.88
2019-04-07T08:15:47.127Z,100476.07
2019-04-07T08:18:19.600Z,100481.23
2019-04-07T08:20:49.093Z,100478.27
2019-04-07T08:23:19.854Z,100474.98
2019-04-07T08:25:52.902Z,100477.81
2019-04-07T08:28:21.885Z,100482.21
2019-04-07T08:30:51.987Z,100482.86
2019-04-07T08:33:22.601Z,100478.91
2019-04-07T08:35:55.042Z,100490.41
2019-04-07T08:38:26.766Z,100485.45
2019-04-07T08:40:56.749Z,100481.66
2019-04-07T08:43:27.616Z,100490.67
2019-04-07T08:45:58.003Z,100471.97
2019-04-07T08:48:28.914Z,100484.41
2019-04-07T08:51:00.741Z,100477.34
2019-04-07T08:53:30.617Z,100469.92
2019-04-07T08:56:00.961Z,100483.28
2019-04-07T08:58:36.148Z,100484.46
2019-04-07T09:01:03.356Z,100483.78
2019-04-07T09:03:34.636Z,100485.16
2019-04-07T09:06:04.794Z,100483.45
2019-04-07T09:08:36.983Z,100482.38
2019-04-07T09:11:15.762Z,100477.34
2019-04-07T09:13:51.334Z,100478.43
2019-04-07T09:16:53.829Z,100494.19
2019-04-07T09:19:41.448Z,100481.39
2019-04-07T09:22:20.108Z,100473.75
2019-04-07T09:25:08.506Z,100485.48
2019-04-07T09:28:15.387Z,100491.80
2019-04-07T09:31:14.356Z,100486.33
2019-04-07T09:34:11.570Z,100475.98
2019-04-07T09:36:59.058Z,100474.11
2019-04-07T09:39:52.787Z,100471.67
2019-04-07T09:42:17.194Z,100470.97
2019-04-07T09:44:56.346Z,100466.88
2019-04-07T09:47:46.872Z,100477.64
2019-04-07T09:50:32.747Z,100470.86
2019-04-07T09:53:21.375Z,100478.09
2019-04-07T09:56:23.012Z,100470.17
2019-04-07T09:59:03.513Z,100476.31
2019-04-07T10:01:59.288Z,100477.91
2019-04-07T10:04:55.742Z,100467.24
2019-04-07T10:07:40.295Z,100465.34
2019-04-07T10:10:19.405Z,100458.09
2019-04-07T10:13:07.680Z,100451.37
2019-04-07T10:16:02.855Z,100449.71
2019-04-07T10:18:58.075Z,100460.55
2019-04-07T10:21:49.715Z,100462.00
2019-04-07T10:24:38.034Z,100456.67
2019-04-07T10:27:29.654Z,100462.27
2019-04-07T10:30:11.718Z,100463.59
2019-04-07T10:33:03.881Z,100455.70
2019-04-07T10:35:43.515Z,100450.59
2019-04-07T10:38:36.207Z,100458.56
2019-04-07T10:41:34.666Z,100457.21
2019-04-07T10:44:17.169Z,100470.17
2019-04-07T10:46:56.059Z,100455.94
2019-04-07T10:49:58.534Z,100451.70
2019-04-07T10:52:49.343Z,100450.02
2019-04-07T10:55:27.685Z,100446.53
2019-04-07T10:58:08.249Z,100446.65
2019-04-07T11:00:58.680Z,100436.55
2019-04-07T11:03:54.855Z,100451.63
2019-04-07T11:06:43.952Z,100451.48
2019-04-07T11:09:51.175Z,100440.25
2019-04-07T11:12:45.804Z,100440.47
2019-04-07T11:15:27.747Z,100435.99
2019-04-07T11:18:19.589Z,100436.50
2019-04-07T11:21:14.456Z,100435.90
2019-04-07T11:23:52.302Z,100430.61
2019-04-07T11:26:41.839Z,100431.64
2019-04-07T11:29:18.257Z,100444.46
2019-04-07T11:32:03.635Z,100436.11
2019-04-07T11:34:45.509Z,100420.36
2019-04-07T11:37:40.802Z,100424.97
2019-04-07T11:40:24.919Z,100423.09
2019-04-07T11:43:24.709Z,100430.28
2019-04-07T11:46:19.667Z,100424.81
2019-04-07T11:49:13.435Z,100426.81
2019-04-07T11:52:03.715Z,100428.39
2019-04-07T11:54:49.868Z,100433.03
2019-04-07T11:57:27.095Z,100436.69
2019-04-07T12:00:16.278Z,100433.85
2019-04-07T12:03:13.755Z,100427.36
2019-04-07T12:06:02.586Z,100428.61
2019-04-07T12:08:56.919Z,100428.20
2019-04-07T12:11:49.381Z,100425.61
2019-04-07T12:14:31.981Z,100433.13
2019-04-07T12:17:30.254Z,100428.67
2019-04-07T12:20:22.732Z,100434.66
2019-04-07T12:23:01.991Z,100426.64
2019-04-07T12:25:54.734Z,100425.70
2019-04-07T12:28:35.349Z,100420.28
2019-04-07T12:31:13.774Z,100426.38
2019-04-07T12:33:57.351Z,100424.05
2019-04-07T12:36:34.843Z,100426.23
2019-04-07T12:39:18.944Z,100418.12
2019-04-07T12:41:59.460Z,100420.81
2019-04-07T12:44:55.520Z,100412.71
2019-04-07T12:47:34.518Z,100424.76
2019-04-07T12:50:26.834Z,100421.89
2019-04-07T12:53:16.216Z,100422.05
2019-04-07T12:56:00.973Z,100412.29
2019-04-07T12:58:50.882Z,100415.25
2019-04-07T13:01:44.551Z,100404.03
2019-04-07T13:04:48.711Z,100410.51
2019-04-07T13:07:52.119Z,100409.38
2019-04-07T13:10:41.648Z,100398.66
2019-04-07T13:13:44.904Z,100400.18
2019-04-07T13:16:26.320Z,100407.67
2019-04-07T13:19:22.100Z,100412.08
2019-04-07T13:22:02.163Z,100403.04
2019-04-07T13:24:45.490Z,100394.82
2019-04-07T13:27:38.907Z,100400.00
2019-04-07T13:30:18.156Z,100401.30
2019-04-07T13:32:57.532Z,100405.80
2019-04-07T13:35:45.766Z,100397.72
2019-04-07T13:38:34.665Z,100403.93
2019-04-07T13:41:17.753Z,100392.51
2019-04-07T13:43:59.428Z,100392.66
2019-04-07T13:46:38.866Z,100401.19
2019-04-07T13:49:24.155Z,100392.77
2019-04-07T13:52:00.659Z,100391.88
2019-04-07T13:54:49.335Z,100394.75
2019-04-07T13:57:44.091Z,100393.44
2019-04-07T14:00:21.712Z,100384.98
2019-04-07T14:03:00.238Z,100393.17
2019-04-07T14:05:38.842Z,100385.89
2019-04-07T14:08:26.362Z,100396.83
2019-04-07T14:11:15.932Z,100390.36
2019-04-07T14:14:05.622Z,100391.51
2019-04-07T14:16:44.552Z,100385.89
2019-04-07T14:19:32.226Z,100381.89
2019-04-07T14:22:20.914Z,100381.21
2019-04-07T14:25:09.106Z,100381.12
2019-04-07T14:27:46.192Z,100392.30
2019-04-07T14:30:38.220Z,100384.05
2019-04-07T14:33:33.007Z,100387.02
2019-04-07T14:36:09.671Z,100386.53
2019-04-07T14:38:45.551Z,100382.84
2019-04-07T14:41:34.504Z,100385.80
2019-04-07T14:44:22.594Z,100383.10
2019-04-07T14:47:10.755Z,100381.77
2019-04-07T14:49:53.419Z,100378.79
2019-04-07T14:52:42.935Z,100368.72
2019-04-07T14:55:31.501Z,100378.36
2019-04-07T14:58:18.956Z,100377.75
2019-04-07T15:01:27.063Z,100376.31
2019-04-07T15:03:57.447Z,100377.52
2019-04-07T15:06:30.930Z,100383.20
2019-04-07T15:09:10.441Z,100372.79
2019-04-07T15:11:45.543Z,100387.48
2019-04-07T15:14:15.689Z,100370.96
2019-04-07T15:16:45.640Z,100365.19
2019-04-07T15:19:16.559Z,100364.88
2019-04-07T15:21:48.846Z,100368.78
2019-04-07T15:24:18.706Z,100362.70
2019-04-07T15:26:50.130Z,100366.23
2019-04-07T15:29:21.000Z,100361.11
2019-04-07T15:31:52.177Z,100354.77
2019-04-07T15:34:23.082Z,100358.50
2019-04-07T15:36:53.036Z,100357.69
2019-04-07T15:39:28.905Z,100365.15
2019-04-07T15:41:59.588Z,100360.58
2019-04-07T15:44:30.134Z,100364.17
2019-04-07T15:47:00.339Z,100358.73
2019-04-07T15:49:31.057Z,100346.75
2019-04-07T15:52:04.452Z,100347.49
2019-04-07T15:54:33.904Z,100363.28
2019-04-07T15:57:04.059Z,100369.40
2019-04-07T15:59:34.234Z,100362.23
2019-04-07T16:02:08.526Z,100367.01
2019-04-07T16:04:36.431Z,100365.70
2019-04-07T16:07:06.611Z,100365.96
2019-04-07T16:09:48.823Z,100367.86
2019-04-07T16:12:08.244Z,100357.31
2019-04-07T16:14:40.269Z,100360.48
2019-04-07T16:17:11.999Z,100369.28
2019-04-07T16:19:45.071Z,100369.66
2019-04-07T16:22:14.651Z,100371.58
2019-04-07T16:24:46.338Z,100371.25
2019-04-07T16:27:17.090Z,100378.25
2019-04-07T16:29:47.928Z,100375.73
2019-04-07T16:32:18.025Z,100371.55
2019-04-07T16:34:48.269Z,100369.53
2019-04-07T16:37:18.277Z,100378.40
2019-04-07T16:39:48.460Z,100378.75
2019-04-07T16:42:18.497Z,100368.02
2019-04-07T16:44:48.509Z,100366.02
2019-04-07T16:47:23.257Z,100378.52
2019-04-07T16:49:50.561Z,100374.58
2019-04-07T16:52:20.574Z,100384.25
2019-04-07T16:54:51.584Z,100386.80
2019-04-07T16:57:27.057Z,100378.64
2019-04-07T16:59:54.246Z,100380.70
2019-04-07T17:02:25.134Z,100386.72
2019-04-07T17:05:05.783Z,100381.67
2019-04-07T17:07:36.366Z,100387.25
2019-04-07T17:10:07.915Z,100385.23
2019-04-07T17:12:40.618Z,100387.53
2019-04-07T17:15:17.493Z,100392.91
2019-04-07T17:17:51.350Z,100394.41
2019-04-07T17:20:20.042Z,100389.56
2019-04-07T17:22:51.099Z,100387.61
2019-04-07T17:25:21.712Z,100395.45
2019-04-07T17:27:51.949Z,100397.66
2019-04-07T17:30:24.371Z,100401.38
2019-04-07T17:32:54.538Z,100406.03
2019-04-07T17:35:29.558Z,100402.77
2019-04-07T17:38:04.108Z,100407.50
2019-04-07T17:40:37.682Z,100407.81
2019-04-07T17:43:31.164Z,100412.28
2019-04-07T17:46:17.010Z,100414.14
2019-04-07T17:49:09.958Z,100418.05
2019-04-07T17:51:45.457Z,100416.84
2019-04-07T17:54:33.414Z,100427.78
2019-04-07T17:57:10.028Z,100427.50
2019-04-07T17:59:55.917Z,100423.31
2019-04-07T18:02:43.089Z,100436.97
2019-04-07T18:05:28.107Z,100426.87
2019-04-07T18:08:07.785Z,100444.41
2019-04-07T18:10:54.137Z,100434.93
2019-04-07T18:13:49.350Z,100443.56
2019-04-07T18:16:28.665Z,100447.47
2019-04-07T18:19:14.217Z,100454.76
2019-04-07T18:22:01.200Z,100458.00
2019-04-07T18:24:53.300Z,100454.02
2019-04-07T18:27:50.687Z,100467.86
2019-04-07T18:30:30.456Z,100466.23
2019-04-07T18:33:07.885Z,100470.00
2019-04-07T18:35:57.009Z,100479.80
2019-04-07T18:38:46.988Z,100479.41
2019-04-07T18:41:41.359Z,100487.45
2019-04-07T18:44:25.157Z,100485.25
2019-04-07T18:47:04.799Z,100491.52
2019-04-07T18:50:04.141Z,100488.73
2019-04-07T18:52:45.696Z,100487.98
2019-04-07T18:55:32.097Z,100490.66
2019-04-07T18:58:26.724Z,100499.15
2019-04-07T19:01:10.272Z,100504.75
2019-04-07T19:03:58.734Z,100496.97
2019-04-07T19:06:50.764Z,100504.13
2019-04-07T19:09:47.633Z,100504.78
2019-04-07T19:12:38.492Z,100511.67
2019-04-07T19:15:47.533Z,100509.30
2019-04-07T19:18:27.140Z,100510.94
2019-04-07T19:21:28.399Z,100507.14
2019-04-07T19:24:08.015Z,100507.59
2019-04-07T19:26:52.262Z,100509.05
2019-04-07T19:29:39.124Z,100516.52
2019-04-07T19:32:14.648Z,100511.53
2019-04-07T19:35:08.896Z,100514.95
2019-04-07T19:37:58.412Z,100520.12
2019-04-07T19:40:38.161Z,100518.87
2019-04-07T19:43:30.774Z,100518.87
2019-04-07T19:46:18.358Z,100515.56
2019-04-07T19:49:15.217Z,100513.33
2019-04-07T19:51:57.384Z,100506.70
2019-04-07T19:54:49.465Z,100512.44
2019-04-07T19:57:25.836Z,100519.22
2019-04-07T20:00:21.565Z,100522.57
2019-04-07T20:02:57.382Z,100515.59
2019-04-07T20:05:50.903Z,100530.11
2019-04-07T20:08:25.720Z,100535.31
2019-04-07T20:11:24.730Z,100539.16
2019-04-07T20:14:11.745Z,100532.48
2019-04-07T20:17:08.422Z,100537.39
2019-04-07T20:19:56.157Z,100531.61
2019-04-07T20:23:00.273Z,100532.70
2019-04-07T20:25:52.748Z,100529.02
2019-04-07T20:28:32.590Z,100534.44
2019-04-07T20:31:14.662Z,100535.07
2019-04-07T20:33:53.354Z,100537.53
2019-04-07T20:36:29.719Z,100535.05
2019-04-07T20:39:07.906Z,100539.53
2019-04-07T20:41:56.717Z,100545.39
2019-04-07T20:44:38.245Z,100537.98
2019-04-07T20:47:26.626Z,100541.03
2019-04-07T20:50:04.286Z,100537.80
2019-04-07T20:52:54.417Z,100535.75
2019-04-07T20:55:50.675Z,100539.83
2019-04-07T20:58:43.684Z,100535.55
2019-04-07T21:01:42.950Z,100543.19
2019-04-07T21:04:22.219Z,100538.95
2019-04-07T21:07:11.525Z,100544.47
2019-04-07T21:09:48.428Z,100545.92
2019-04-07T21:12:35.740Z,100546.09
2019-04-07T21:15:32.352Z,100546.65
2019-04-07T21:18:17.934Z,100552.50
2019-04-07T21:21:11.796Z,100550.16
2019-04-07T21:24:00.396Z,100549.88
2019-04-07T21:26:36.009Z,100551.05
2019-04-07T21:29:28.369Z,100553.70
2019-04-07T21:32:18.776Z,100549.91
2019-04-07T21:35:00.479Z,100551.94
2019-04-07T21:37:40.708Z,100544.44
2019-04-07T21:40:28.585Z,100551.41
2019-04-07T21:43:17.960Z,100556.47
2019-04-07T21:45:55.758Z,100551.11
2019-04-07T21:48:50.895Z,100552.83
2019-04-07T21:51:29.046Z,100557.89
2019-04-07T21:54:07.665Z,100556.98
2019-04-07T21:56:54.283Z,100556.44
2019-04-07T21:59:33.486Z,100557.62
2019-04-07T22:02:29.217Z,100553.31
2019-04-07T22:05:15.584Z,100550.58
2019-04-07T22:08:10.961Z,100556.62
2019-04-07T22:10:38.132Z,100551.94
2019-04-07T22:13:09.166Z,100557.99
2019-04-07T22:15:47.403Z,100559.71
2019-04-07T22:18:11.235Z,100560.19
2019-04-07T22:20:41.467Z,100563.80
2019-04-07T22:23:11.430Z,100565.07
2019-04-07T22:25:52.090Z,100567.00
2019-04-07T22:28:22.712Z,100565.48
2019-04-07T22:30:55.003Z,100563.86
2019-04-07T22:33:27.498Z,100559.86
2019-04-07T22:35:57.561Z,100558.92
2019-04-07T22:38:27.788Z,100555.97
2019-04-07T22:40:58.432Z,100550.02
2019-04-07T22:43:28.493Z,100555.20
2019-04-07T22:46:07.655Z,100557.98
2019-04-07T22:48:30.953Z,100554.73
2019-04-07T22:51:02.848Z,100553.33
2019-04-07T22:53:33.200Z,100545.37
2019-04-07T22:56:06.363Z,100554.02
2019-04-07T22:58:36.109Z,100548.81
2019-04-07T23:01:07.583Z,100542.82
2019-04-07T23:03:37.873Z,100546.92
2019-04-07T23:06:07.929Z,100541.91
2019-04-07T23:08:39.043Z,100545.80
2019-04-07T23:11:09.344Z,100553.64
2019-04-07T23:13:39.815Z,100544.94
2019-04-07T23:16:13.816Z,100546.68
2019-04-07T23:18:42.230Z,100548.91
2019-04-07T23:21:12.384Z,100549.34
2019-04-07T23:23:42.281Z,100552.80
2019-04-07T23:26:12.601Z,100544.52
2019-04-07T23:28:42.586Z,100546.64
2019-04-07T23:31:12.721Z,100547.17
2019-04-07T23:33:42.699Z,100544.95
2019-04-07T23:36:12.620Z,100551.90
2019-04-07T23:38:43.814Z,100549.63
2019-04-07T23:41:13.818Z,100552.34
2019-04-07T23:43:43.858Z,100554.48
2019-04-07T23:46:20.629Z,100554.93
2019-04-07T23:48:45.672Z,100554.07
2019-04-07T23:51:16.425Z,100559.69
2019-04-07T23:54:12.772Z,100554.90
2019-04-07T23:56:44.910Z,100562.69
2019-04-07T23:59:15.386Z,100551.92
